createdAt,value
2022-12-24T00:00:25.676Z,25.23
2022-12-24T00:02:55.677Z,30.35
2022-12-24T00:05:25.592Z,25.13
2022-12-24T00:07:55.551Z,21.88
2022-12-24T00:10:28.050Z,26.52
2022-12-24T00:12:57.892Z,20.50
2022-12-24T00:15:27.766Z,23.88
2022-12-24T00:17:57.601Z,22.92
2022-12-24T00:20:27.591Z,25.48
2022-12-24T00:22:57.587Z,25.15
2022-12-24T00:25:30.068Z,27.42
2022-12-24T00:27:59.950Z,28.92
2022-12-24T00:30:29.912Z,27.98
2022-12-24T00:32:59.849Z,25.23
2022-12-24T00:35:29.712Z,27.80
2022-12-24T00:37:59.569Z,29.92
2022-12-24T00:40:32.435Z,21.95
2022-12-24T00:43:02.426Z,24.15
2022-12-24T00:45:32.308Z,24.15
2022-12-24T00:48:02.162Z,18.67
2022-12-24T00:50:32.029Z,20.92
2022-12-24T00:53:01.873Z,22.08
2022-12-24T00:55:34.378Z,23.08
2022-12-24T00:58:04.232Z,18.77
2022-12-24T01:00:34.140Z,19.00
2022-12-24T01:03:04.125Z,21.75
2022-12-24T01:05:34.169Z,19.20
2022-12-24T01:08:04.062Z,18.88
2022-12-24T01:10:36.703Z,20.60
2022-12-24T01:13:06.955Z,23.13
2022-12-24T01:15:36.880Z,17.90
2022-12-24T01:18:06.995Z,20.85
2022-12-24T01:20:36.900Z,22.08
2022-12-24T01:23:06.804Z,18.08
2022-12-24T01:25:40.678Z,22.75
2022-12-24T01:28:10.552Z,19.27
2022-12-24T01:30:40.417Z,19.70
2022-12-24T01:33:10.265Z,20.75
2022-12-24T01:35:42.500Z,20.63
2022-12-24T01:38:14.298Z,21.35
2022-12-24T01:40:59.274Z,19.02
2022-12-24T01:43:31.905Z,22.65
2022-12-24T01:46:02.961Z,24.58
2022-12-24T01:48:40.843Z,25.95
2022-12-24T01:51:21.722Z,26.08
2022-12-24T01:53:58.642Z,23.13
2022-12-24T01:56:32.707Z,21.42
2022-12-24T01:59:08.526Z,23.17
2022-12-24T02:01:39.136Z,23.30
2022-12-24T02:04:18.224Z,22.27
2022-12-24T02:06:48.176Z,26.95
2022-12-24T02:09:18.129Z,27.77
2022-12-24T02:11:50.710Z,26.10
2022-12-24T02:14:21.643Z,22.35
2022-12-24T02:17:01.223Z,26.23
2022-12-24T02:20:11.766Z,26.90
2022-12-24T02:23:03.340Z,26.67
2022-12-24T02:25:51.929Z,24.70
2022-12-24T02:28:55.200Z,22.65
2022-12-24T02:31:35.532Z,24.05
2022-12-24T02:34:11.798Z,26.98
2022-12-24T02:36:46.709Z,24.85
2022-12-24T02:39:25.279Z,27.13
2022-12-24T02:42:10.678Z,30.80
2022-12-24T02:44:46.426Z,28.42
2022-12-24T02:47:22.634Z,22.92
2022-12-24T02:49:52.487Z,33.10
2022-12-24T02:52:34.634Z,31.58
2022-12-24T02:55:10.236Z,27.20
2022-12-24T02:57:57.544Z,30.30
2022-12-24T03:00:28.794Z,27.00
2022-12-24T03:03:25.810Z,31.90
2022-12-24T03:06:03.147Z,34.58
2022-12-24T03:08:42.882Z,37.40
2022-12-24T03:11:15.937Z,32.58
2022-12-24T03:13:47.026Z,34.42
2022-12-24T03:16:20.756Z,34.63
2022-12-24T03:18:55.517Z,33.38
2022-12-24T03:23:58.003Z,33.42
2022-12-24T03:26:30.040Z,27.65
2022-12-24T03:28:59.917Z,31.63
2022-12-24T03:31:29.830Z,38.90
2022-12-24T03:34:02.353Z,30.25
2022-12-24T03:36:32.218Z,31.63
2022-12-24T03:39:02.066Z,36.30
2022-12-24T03:41:31.933Z,36.63
2022-12-24T03:44:02.007Z,30.05
2022-12-24T03:46:31.935Z,33.38
2022-12-24T03:49:04.584Z,26.63
2022-12-24T03:51:35.371Z,26.98
2022-12-24T03:54:05.311Z,32.53
2022-12-24T03:56:35.160Z,28.98
2022-12-24T03:59:05.171Z,32.75
2022-12-24T04:01:35.096Z,31.42
2022-12-24T04:04:07.719Z,28.48
2022-12-24T04:06:37.613Z,25.90
2022-12-24T04:09:07.808Z,31.58
2022-12-24T04:11:37.725Z,35.08
2022-12-24T04:14:07.623Z,29.63
2022-12-24T04:16:37.518Z,27.33
2022-12-24T04:19:09.971Z,32.58
2022-12-24T04:21:39.853Z,26.13
2022-12-24T04:24:10.258Z,30.63
2022-12-24T04:26:40.091Z,29.70
2022-12-24T04:29:10.222Z,31.83
2022-12-24T04:31:40.751Z,27.45
2022-12-24T04:34:13.291Z,28.35
2022-12-24T04:36:43.191Z,31.02
2022-12-24T04:39:13.057Z,27.88
2022-12-24T04:41:42.938Z,28.58
2022-12-24T04:44:13.217Z,30.60
2022-12-24T04:46:43.485Z,27.25
2022-12-24T04:49:16.347Z,25.95
2022-12-24T04:51:46.286Z,26.38
2022-12-24T04:54:16.208Z,31.88
2022-12-24T04:56:46.062Z,23.67
2022-12-24T04:59:15.926Z,28.20
2022-12-24T05:01:45.858Z,27.65
2022-12-24T05:04:18.369Z,29.25
2022-12-24T05:06:48.270Z,27.45
2022-12-24T05:09:18.154Z,26.70
2022-12-24T05:11:48.015Z,23.65
2022-12-24T05:14:17.923Z,23.75
2022-12-24T05:16:47.863Z,25.17
2022-12-24T05:19:20.350Z,27.20
2022-12-24T05:22:10.283Z,31.35
2022-12-24T05:24:52.854Z,35.22
2022-12-24T05:27:22.826Z,30.13
2022-12-24T05:29:52.710Z,23.63
2022-12-24T05:32:22.746Z,29.27
2022-12-24T05:34:55.167Z,27.40
2022-12-24T05:37:25.453Z,24.63
2022-12-24T05:39:55.345Z,25.73
2022-12-24T05:42:25.235Z,24.65
2022-12-24T05:44:55.098Z,24.40
2022-12-24T05:47:24.977Z,27.17
2022-12-24T05:49:57.451Z,30.27
2022-12-24T05:52:27.373Z,25.60
2022-12-24T05:54:57.235Z,21.20
2022-12-24T05:57:27.161Z,28.30
2022-12-24T05:59:57.060Z,30.38
2022-12-24T06:02:26.944Z,25.23
2022-12-24T06:04:59.412Z,26.60
2022-12-24T06:07:29.595Z,28.05
2022-12-24T06:09:59.458Z,24.92
2022-12-24T06:12:29.613Z,20.27
2022-12-24T06:14:59.517Z,23.33
2022-12-24T06:17:29.427Z,24.20
2022-12-24T06:20:01.912Z,24.50
2022-12-24T06:22:31.865Z,27.27
2022-12-24T06:25:01.733Z,26.63
2022-12-24T06:27:31.595Z,24.38
2022-12-24T06:30:01.501Z,28.33
2022-12-24T06:32:31.368Z,22.40
2022-12-24T06:35:03.912Z,27.10
2022-12-24T06:37:33.816Z,23.27
2022-12-24T06:40:03.929Z,25.45
2022-12-24T06:42:33.890Z,23.73
2022-12-24T06:45:08.149Z,25.55
2022-12-24T06:50:12.382Z,29.13
2022-12-24T06:52:42.289Z,30.97
2022-12-24T06:55:13.093Z,36.38
2022-12-24T06:57:43.136Z,24.77
2022-12-24T07:00:15.766Z,32.10
2022-12-24T07:02:46.768Z,39.75
2022-12-24T07:05:19.486Z,25.90
2022-12-24T07:07:49.402Z,35.97
2022-12-24T07:10:24.337Z,28.08
2022-12-24T07:12:54.271Z,27.30
2022-12-24T07:15:24.164Z,28.13
2022-12-24T07:17:54.049Z,25.17
2022-12-24T07:20:26.570Z,24.80
2022-12-24T07:22:56.428Z,30.40
2022-12-24T07:25:26.322Z,29.33
2022-12-24T07:27:56.411Z,37.50
2022-12-24T07:30:26.265Z,27.88
2022-12-24T07:32:56.142Z,30.33
2022-12-24T07:35:28.598Z,29.90
2022-12-24T07:37:58.498Z,27.13
2022-12-24T07:40:28.442Z,30.33
2022-12-24T07:42:58.337Z,30.48
2022-12-24T07:45:28.217Z,35.03
2022-12-24T07:47:58.088Z,33.65
2022-12-24T07:50:30.689Z,30.95
2022-12-24T07:53:00.560Z,35.60
2022-12-24T07:55:30.450Z,34.95
2022-12-24T07:58:00.335Z,33.95
2022-12-24T08:00:30.309Z,34.92
2022-12-24T08:03:00.415Z,41.88
2022-12-24T08:05:38.128Z,32.20
2022-12-24T08:08:08.082Z,35.83
2022-12-24T08:10:37.953Z,38.17
2022-12-24T08:13:07.860Z,28.52
2022-12-24T08:15:37.792Z,43.33
2022-12-24T08:18:08.127Z,30.40
2022-12-24T08:20:41.383Z,31.13
2022-12-24T08:23:11.752Z,25.83
2022-12-24T08:25:45.390Z,25.75
2022-12-24T08:28:16.766Z,34.25
2022-12-24T08:30:47.576Z,36.38
2022-12-24T08:33:17.446Z,36.53
2022-12-24T08:35:55.296Z,28.50
2022-12-24T08:38:25.788Z,31.95
2022-12-24T08:40:57.104Z,29.55
2022-12-24T08:43:28.183Z,31.92
2022-12-24T08:45:58.209Z,34.10
2022-12-24T08:48:28.125Z,39.35
2022-12-24T08:51:00.669Z,33.63
2022-12-24T08:53:30.556Z,28.70
2022-12-24T08:56:05.686Z,33.72
2022-12-24T08:58:36.058Z,27.95
2022-12-24T09:01:15.284Z,32.33
2022-12-24T09:03:46.040Z,29.25
2022-12-24T09:06:19.176Z,29.23
2022-12-24T09:08:50.201Z,36.05
2022-12-24T09:11:22.549Z,28.42
2022-12-24T09:13:52.608Z,30.65
2022-12-24T09:16:22.541Z,31.73
2022-12-24T09:18:52.435Z,35.30
2022-12-24T09:21:24.936Z,34.80
2022-12-24T09:23:54.815Z,30.38
2022-12-24T09:26:26.740Z,33.58
2022-12-24T09:28:56.819Z,31.05
2022-12-24T09:31:27.111Z,34.08
2022-12-24T09:33:57.024Z,31.70
2022-12-24T09:36:30.381Z,37.90
2022-12-24T09:39:00.275Z,33.15
2022-12-24T09:41:47.255Z,36.60
2022-12-24T09:44:37.880Z,36.92
2022-12-24T09:47:20.440Z,37.08
2022-12-24T09:49:55.178Z,34.30
2022-12-24T09:55:10.231Z,33.58
2022-12-24T09:57:43.406Z,37.83
2022-12-24T10:00:24.026Z,47.63
2022-12-24T10:02:54.100Z,38.83
2022-12-24T10:05:36.858Z,31.63
2022-12-24T10:08:23.907Z,31.98
2022-12-24T10:10:57.488Z,36.47
2022-12-24T10:13:46.557Z,35.25
2022-12-24T10:16:26.065Z,36.83
2022-12-24T10:19:06.317Z,36.45
2022-12-24T10:21:50.526Z,46.63
2022-12-24T10:24:29.023Z,52.57
2022-12-24T10:27:04.514Z,39.55
2022-12-24T10:29:39.545Z,46.85
2022-12-24T10:32:23.373Z,36.88
2022-12-24T10:35:02.256Z,38.22
2022-12-24T10:37:33.396Z,38.30
2022-12-24T10:40:07.076Z,38.65
2022-12-24T10:42:50.221Z,37.38
2022-12-24T10:45:24.930Z,44.95
2022-12-24T10:47:59.064Z,47.90
2022-12-24T10:50:36.154Z,39.60
2022-12-24T10:53:17.062Z,43.40
2022-12-24T10:55:51.076Z,39.65
2022-12-24T10:58:23.162Z,39.20
2022-12-24T11:00:55.239Z,38.95
2022-12-24T11:03:32.441Z,34.90
2022-12-24T11:06:15.213Z,33.80
2022-12-24T11:08:48.049Z,30.50
2022-12-24T11:11:23.638Z,39.58
2022-12-24T11:13:59.251Z,39.83
2022-12-24T11:16:33.417Z,41.58
2022-12-24T11:19:07.652Z,40.75
2022-12-24T11:21:41.415Z,41.88
2022-12-24T11:24:28.381Z,41.08
2022-12-24T11:27:42.245Z,36.10
2022-12-24T11:30:26.315Z,38.08
2022-12-24T11:33:21.907Z,43.83
2022-12-24T11:35:57.096Z,46.70
2022-12-24T11:38:29.245Z,41.40
2022-12-24T11:41:07.284Z,44.95
2022-12-24T11:43:52.736Z,43.08
2022-12-24T11:46:39.999Z,33.28
2022-12-24T11:49:20.842Z,37.85
2022-12-24T11:52:22.642Z,40.15
2022-12-24T11:55:15.422Z,39.92
2022-12-24T11:57:55.071Z,42.58
2022-12-24T12:00:29.562Z,38.40
2022-12-24T12:03:03.876Z,44.58
2022-12-24T12:05:38.903Z,43.45
2022-12-24T12:08:18.340Z,40.67
2022-12-24T12:10:49.849Z,38.47
2022-12-24T12:13:25.638Z,39.03
2022-12-24T12:16:09.280Z,39.20
2022-12-24T12:18:42.526Z,42.13
2022-12-24T12:21:17.788Z,36.83
2022-12-24T12:23:52.597Z,41.15
2022-12-24T12:29:01.165Z,39.42
2022-12-24T12:31:37.698Z,43.15
2022-12-24T12:34:14.560Z,36.20
2022-12-24T12:36:49.611Z,41.60
2022-12-24T12:39:19.627Z,41.75
2022-12-24T12:41:57.760Z,39.58
2022-12-24T12:44:52.383Z,44.60
2022-12-24T12:47:45.494Z,46.03
2022-12-24T12:50:21.819Z,53.17
2022-12-24T12:53:07.961Z,51.90
2022-12-24T12:55:49.222Z,53.47
2022-12-24T12:58:31.777Z,53.08
2022-12-24T13:01:09.331Z,50.78
2022-12-24T13:04:24.450Z,47.90
2022-12-24T13:07:42.608Z,45.00
2022-12-24T13:11:01.176Z,45.22
2022-12-24T13:13:54.968Z,45.85
2022-12-24T13:17:09.591Z,49.17
2022-12-24T13:20:13.661Z,47.80
2022-12-24T13:22:52.807Z,50.05
2022-12-24T13:25:27.395Z,52.90
2022-12-24T13:27:57.366Z,50.53
2022-12-24T13:30:41.989Z,40.17
2022-12-24T13:33:14.805Z,38.22
2022-12-24T13:36:01.353Z,37.97
2022-12-24T13:38:46.585Z,47.35
2022-12-24T13:41:46.545Z,37.65
2022-12-24T13:44:32.946Z,42.60
2022-12-24T13:47:07.716Z,49.92
2022-12-24T13:49:41.187Z,42.00
2022-12-24T13:52:21.439Z,42.03
2022-12-24T13:55:22.495Z,44.13
2022-12-24T13:58:02.226Z,38.58
2022-12-24T14:00:43.224Z,39.03
2022-12-24T14:03:32.165Z,53.97
2022-12-24T14:06:06.186Z,43.67
2022-12-24T14:08:42.724Z,46.23
2022-12-24T14:11:18.547Z,49.60
2022-12-24T14:14:14.839Z,54.05
2022-12-24T14:16:55.642Z,56.42
2022-12-24T14:19:35.442Z,51.63
2022-12-24T14:22:21.334Z,53.63
2022-12-24T14:24:58.081Z,49.65
2022-12-24T14:27:39.485Z,51.63
2022-12-24T14:30:18.760Z,55.78
2022-12-24T14:32:50.138Z,51.70
2022-12-24T14:35:24.831Z,39.10
2022-12-24T14:38:02.933Z,45.92
2022-12-24T14:40:35.634Z,46.00
2022-12-24T14:43:20.978Z,43.80
2022-12-24T14:46:00.959Z,66.63
2022-12-24T14:48:41.959Z,64.03
2022-12-24T14:51:21.629Z,47.60
2022-12-24T14:54:26.313Z,35.88
2022-12-24T14:57:31.222Z,33.17
2022-12-24T15:00:06.393Z,34.30
2022-12-24T15:02:51.326Z,47.10
2022-12-24T15:05:28.920Z,37.65
2022-12-24T15:08:02.371Z,42.53
2022-12-24T15:10:35.712Z,33.40
2022-12-24T15:13:09.314Z,37.83
2022-12-24T15:15:52.026Z,27.27
2022-12-24T15:18:26.934Z,29.75
2022-12-24T15:21:04.361Z,31.90
2022-12-24T15:23:37.351Z,39.47
2022-12-24T15:26:19.195Z,85.97
2022-12-24T15:28:49.336Z,72.30
2022-12-24T15:31:24.478Z,68.28
2022-12-24T15:33:59.311Z,86.03
2022-12-24T15:36:34.070Z,76.63
2022-12-24T15:39:08.272Z,45.70
2022-12-24T15:42:02.956Z,41.08
2022-12-24T15:44:38.101Z,32.17
2022-12-24T15:47:18.322Z,29.70
2022-12-24T15:49:52.919Z,26.65
2022-12-24T15:52:27.000Z,25.33
2022-12-24T15:54:58.416Z,25.35
2022-12-24T15:57:33.241Z,24.67
2022-12-24T16:00:05.237Z,30.45
2022-12-24T16:02:41.800Z,22.48
2022-12-24T16:05:41.363Z,23.75
2022-12-24T16:08:31.597Z,29.13
2022-12-24T16:11:19.379Z,31.00
2022-12-24T16:14:07.186Z,31.48
2022-12-24T16:16:43.481Z,26.85
2022-12-24T16:19:25.600Z,23.45
2022-12-24T16:21:57.877Z,36.65
2022-12-24T16:24:30.785Z,26.02
2022-12-24T16:27:00.904Z,49.08
2022-12-24T16:29:30.781Z,51.65
2022-12-24T16:32:02.074Z,55.03
2022-12-24T16:34:36.104Z,33.95
2022-12-24T16:37:05.953Z,35.47
2022-12-24T16:39:37.692Z,32.33
2022-12-24T16:42:20.492Z,34.63
2022-12-24T16:44:50.839Z,34.63
2022-12-24T16:47:24.132Z,42.60
2022-12-24T16:49:56.779Z,35.60
2022-12-24T16:52:29.861Z,26.10
2022-12-24T16:55:00.469Z,35.25
2022-12-24T16:57:31.398Z,40.88
2022-12-24T17:00:01.232Z,40.25
2022-12-24T17:02:31.365Z,33.05
2022-12-24T17:05:03.998Z,37.33
2022-12-24T17:07:37.115Z,33.67
2022-12-24T17:10:13.882Z,38.78
2022-12-24T17:12:43.957Z,55.17
2022-12-24T17:15:14.371Z,34.35
2022-12-24T17:17:44.280Z,48.25
2022-12-24T17:20:22.073Z,39.20
2022-12-24T17:22:54.257Z,53.92
2022-12-24T17:25:24.248Z,47.28
2022-12-24T17:27:54.122Z,41.47
2022-12-24T17:30:24.163Z,49.10
2022-12-24T17:32:54.057Z,43.63
2022-12-24T17:35:26.500Z,46.78
2022-12-24T17:37:56.373Z,59.55
2022-12-24T17:40:26.227Z,41.58
2022-12-24T17:42:56.066Z,39.08
2022-12-24T17:45:26.114Z,43.22
2022-12-24T17:47:56.040Z,53.08
2022-12-24T17:50:28.526Z,69.95
2022-12-24T17:52:58.877Z,96.43
2022-12-24T17:55:28.855Z,43.17
2022-12-24T17:57:59.551Z,39.05
2022-12-24T18:00:32.972Z,43.60
2022-12-24T18:03:03.489Z,47.57
2022-12-24T18:05:37.887Z,48.65
2022-12-24T18:08:09.517Z,49.65
2022-12-24T18:10:39.510Z,36.85
2022-12-24T18:13:15.515Z,37.83
2022-12-24T18:15:49.012Z,42.60
2022-12-24T18:18:18.958Z,47.47
2022-12-24T18:20:51.455Z,40.92
2022-12-24T18:23:21.308Z,45.38
2022-12-24T18:25:51.233Z,34.72
2022-12-24T18:28:21.145Z,45.30
2022-12-24T18:31:01.253Z,39.38
2022-12-24T18:33:32.147Z,36.15
2022-12-24T18:36:05.023Z,43.13
2022-12-24T18:38:35.170Z,43.92
2022-12-24T18:41:07.110Z,40.30
2022-12-24T18:43:37.444Z,40.10
2022-12-24T18:46:10.752Z,43.65
2022-12-24T18:48:40.958Z,30.77
2022-12-24T18:51:14.602Z,34.38
2022-12-24T18:53:44.782Z,39.10
2022-12-24T18:56:17.420Z,36.13
2022-12-24T18:58:48.593Z,37.05
2022-12-24T19:01:22.258Z,41.95
2022-12-24T19:03:53.143Z,34.72
2022-12-24T19:06:26.904Z,31.08
2022-12-24T19:08:59.630Z,33.08
2022-12-24T19:11:33.896Z,32.30
2022-12-24T19:14:05.424Z,99.85
2022-12-24T19:16:39.148Z,36.33
2022-12-24T19:19:11.684Z,30.77
2022-12-24T19:21:47.171Z,33.50
2022-12-24T19:24:17.051Z,32.90
2022-12-24T19:26:46.927Z,33.97
2022-12-24T19:29:16.790Z,35.55
2022-12-24T19:31:47.540Z,37.95
2022-12-24T19:34:17.597Z,30.63
2022-12-24T19:36:50.561Z,35.67
2022-12-24T19:39:20.407Z,27.20
2022-12-24T19:41:50.354Z,24.25
2022-12-24T19:44:20.381Z,28.67
2022-12-24T19:46:50.327Z,35.90
2022-12-24T19:49:20.307Z,35.47
2022-12-24T19:51:54.769Z,30.55
2022-12-24T19:54:24.789Z,29.33
2022-12-24T19:56:54.734Z,24.52
2022-12-24T19:59:26.489Z,30.55
2022-12-24T20:01:56.719Z,31.00
2022-12-24T20:04:26.768Z,33.38
2022-12-24T20:07:00.727Z,40.28
2022-12-24T20:09:32.732Z,35.50
2022-12-24T20:12:02.908Z,29.98
2022-12-24T20:14:32.772Z,30.98
2022-12-24T20:17:02.703Z,31.55
2022-12-24T20:19:32.649Z,26.75
2022-12-24T20:22:05.149Z,34.22
2022-12-24T20:24:35.103Z,30.63
2022-12-24T20:27:04.981Z,26.55
2022-12-24T20:29:34.837Z,26.08
2022-12-24T20:32:04.744Z,23.17
2022-12-24T20:34:36.759Z,30.52
2022-12-24T20:37:09.507Z,22.13
2022-12-24T20:39:39.533Z,26.88
2022-12-24T20:42:09.397Z,28.98
2022-12-24T20:44:39.254Z,26.48
2022-12-24T20:47:09.108Z,25.17
2022-12-24T20:49:38.961Z,22.23
2022-12-24T20:52:11.435Z,31.17
2022-12-24T20:54:41.555Z,20.75
2022-12-24T20:57:11.412Z,25.38
2022-12-24T20:59:41.316Z,19.90
2022-12-24T21:02:13.213Z,20.92
2022-12-24T21:04:43.214Z,18.75
2022-12-24T21:07:15.736Z,24.98
2022-12-24T21:09:45.912Z,22.05
2022-12-24T21:12:28.294Z,19.65
2022-12-24T21:14:58.174Z,25.77
2022-12-24T21:17:29.728Z,21.23
2022-12-24T21:20:00.663Z,18.67
2022-12-24T21:22:33.202Z,27.08
2022-12-24T21:25:03.056Z,19.08
2022-12-24T21:27:33.175Z,17.05
2022-12-24T21:30:03.108Z,14.23
2022-12-24T21:32:32.966Z,24.52
2022-12-24T21:35:02.901Z,18.45
2022-12-24T21:37:35.379Z,20.23
2022-12-24T21:40:06.010Z,18.52
2022-12-24T21:42:36.566Z,20.33
2022-12-24T21:45:09.578Z,17.65
2022-12-24T21:47:39.583Z,16.20
2022-12-24T21:50:31.631Z,16.98
2022-12-24T21:53:16.751Z,20.80
2022-12-24T21:55:46.700Z,18.13
2022-12-24T21:58:14.014Z,16.27
2022-12-24T22:00:44.105Z,22.60
2022-12-24T22:03:13.998Z,22.90
2022-12-24T22:05:43.886Z,17.40
2022-12-24T22:08:28.883Z,17.75
2022-12-24T22:11:26.664Z,17.35
2022-12-24T22:13:56.522Z,14.73
2022-12-24T22:16:26.457Z,19.48
2022-12-24T22:18:56.448Z,15.23
2022-12-24T22:21:26.305Z,15.00
2022-12-24T22:23:58.731Z,18.80
2022-12-24T22:26:28.613Z,14.85
2022-12-24T22:28:58.463Z,18.95
2022-12-24T22:31:28.420Z,18.13
2022-12-24T22:33:58.319Z,13.52
2022-12-24T22:36:28.241Z,20.45
2022-12-24T22:39:00.676Z,18.73
2022-12-24T22:41:30.615Z,20.58
2022-12-24T22:44:00.545Z,14.77
2022-12-24T22:46:30.475Z,17.88
2022-12-24T22:49:00.408Z,22.25
2022-12-24T22:51:30.266Z,15.55
2022-12-24T22:54:03.181Z,17.10
2022-12-24T22:56:38.825Z,16.50
2022-12-24T22:59:11.273Z,15.05
2022-12-24T23:01:43.906Z,12.80
2022-12-24T23:04:14.746Z,18.75
2022-12-24T23:06:44.933Z,18.58
2022-12-24T23:09:19.000Z,20.55
2022-12-24T23:11:48.899Z,16.30
2022-12-24T23:14:33.719Z,20.30
2022-12-24T23:17:03.696Z,19.75
2022-12-24T23:19:34.606Z,16.35
2022-12-24T23:22:06.391Z,27.27
2022-12-24T23:24:40.184Z,21.27
2022-12-24T23:27:10.821Z,27.35
2022-12-24T23:29:40.739Z,24.08
2022-12-24T23:32:10.617Z,14.77
2022-12-24T23:34:40.481Z,25.77
2022-12-24T23:37:10.318Z,15.30
2022-12-24T23:39:42.759Z,19.48
2022-12-24T23:42:12.605Z,19.75
2022-12-24T23:44:43.741Z,23.27
2022-12-24T23:47:13.579Z,17.13
2022-12-24T23:49:43.437Z,17.88
2022-12-24T23:52:13.361Z,18.40
2022-12-24T23:54:46.056Z,17.20
2022-12-24T23:57:15.916Z,14.68
2022-12-24T23:59:46.153Z,18.42
